createdAt,value
2017-10-23T00:00:00.154Z,979.5
2017-10-23T00:01:02.149Z,979.6
2017-10-23T00:02:04.082Z,979.6
2017-10-23T00:03:06.061Z,979.6
2017-10-23T00:04:08.061Z,979.5
2017-10-23T00:05:10.036Z,979.5
2017-10-23T00:06:12.065Z,979.6
2017-10-23T00:07:14.049Z,979.6
2017-10-23T00:08:15.950Z,979.6
2017-10-23T00:09:17.885Z,979.6
2017-10-23T00:10:19.856Z,979.6
2017-10-23T00:11:21.842Z,979.6
2017-10-23T00:12:24.094Z,979.6
2017-10-23T00:13:26.046Z,979.7
2017-10-23T00:14:27.967Z,979.6
2017-10-23T00:15:29.909Z,979.6
2017-10-23T00:16:31.837Z,979.6
2017-10-23T00:17:34.033Z,979.6
2017-10-23T00:18:35.977Z,979.6
2017-10-23T00:19:37.895Z,979.6
2017-10-23T00:20:39.811Z,979.6
2017-10-23T00:21:41.714Z,979.6
2017-10-23T00:22:43.649Z,979.6
2017-10-23T00:23:45.604Z,979.7
2017-10-23T00:24:47.521Z,979.7
2017-10-23T00:25:49.429Z,979.6
2017-10-23T00:26:51.672Z,979.6
2017-10-23T00:27:53.940Z,979.6
2017-10-23T00:28:55.870Z,979.6
2017-10-23T00:29:57.800Z,979.7
2017-10-23T00:30:59.679Z,979.7
2017-10-23T00:32:01.872Z,979.7
2017-10-23T00:33:03.834Z,979.6
2017-10-23T00:34:05.716Z,979.7
2017-10-23T00:35:07.572Z,979.7
2017-10-23T00:36:09.529Z,979.7
2017-10-23T00:37:11.485Z,979.7
2017-10-23T00:38:13.665Z,979.7
2017-10-23T00:39:15.543Z,979.8
2017-10-23T00:40:17.463Z,979.7
2017-10-23T00:41:19.380Z,979.7
2017-10-23T00:42:21.313Z,979.7
2017-10-23T00:43:23.435Z,979.6
2017-10-23T00:44:25.379Z,979.7
2017-10-23T00:45:27.370Z,979.6
2017-10-23T00:46:29.329Z,979.7
2017-10-23T00:47:31.194Z,979.7
2017-10-23T00:48:33.210Z,979.7
2017-10-23T00:49:35.080Z,979.7
2017-10-23T00:50:37.025Z,979.7
2017-10-23T00:51:38.996Z,979.7
2017-10-23T00:52:40.882Z,979.8
2017-10-23T00:53:42.768Z,979.7
2017-10-23T00:54:44.654Z,979.7
2017-10-23T00:55:46.563Z,979.8
2017-10-23T00:56:48.406Z,979.8
2017-10-23T00:57:50.315Z,979.8
2017-10-23T00:58:52.174Z,979.8
2017-10-23T00:59:54.066Z,979.8
2017-10-23T01:00:56.133Z,979.7
2017-10-23T01:01:58.706Z,979.8
2017-10-23T01:03:00.567Z,979.7
2017-10-23T01:04:02.473Z,979.8
2017-10-23T01:05:04.429Z,979.7
2017-10-23T01:06:06.265Z,979.7
2017-10-23T01:07:08.155Z,979.8
2017-10-23T01:08:10.042Z,979.8
2017-10-23T01:09:12.231Z,979.8
2017-10-23T01:10:14.139Z,979.7
2017-10-23T01:11:16.052Z,979.7
2017-10-23T01:12:17.970Z,979.7
2017-10-23T01:13:19.988Z,979.7
2017-10-23T01:14:21.955Z,979.7
2017-10-23T01:15:23.872Z,979.7
2017-10-23T01:16:25.817Z,979.8
2017-10-23T01:17:27.780Z,979.8
2017-10-23T01:18:29.746Z,979.8
2017-10-23T01:19:31.757Z,979.8
2017-10-23T01:20:33.797Z,979.7
2017-10-23T01:21:35.735Z,979.8
2017-10-23T01:22:37.681Z,979.8
2017-10-23T01:23:39.598Z,979.7
2017-10-23T01:24:41.775Z,979.8
2017-10-23T01:25:43.664Z,979.9
2017-10-23T01:26:45.651Z,979.9
2017-10-23T01:27:47.574Z,979.8
2017-10-23T01:28:49.484Z,979.8
2017-10-23T01:29:51.419Z,979.8
2017-10-23T01:30:53.656Z,979.9
2017-10-23T01:31:55.805Z,979.7
2017-10-23T01:32:57.752Z,979.7
2017-10-23T01:33:59.671Z,979.7
2017-10-23T01:35:01.559Z,979.7
2017-10-23T01:36:03.422Z,979.6
2017-10-23T01:37:05.676Z,979.6
2017-10-23T01:38:07.541Z,979.7
2017-10-23T01:39:09.504Z,979.6
2017-10-23T01:40:11.762Z,979.6
2017-10-23T01:41:13.732Z,979.7
2017-10-23T01:42:15.769Z,979.6
2017-10-23T01:43:17.769Z,979.6
2017-10-23T01:44:19.742Z,979.6
2017-10-23T01:45:21.741Z,979.6
2017-10-23T01:46:23.824Z,979.6
2017-10-23T01:47:25.781Z,979.6
2017-10-23T01:48:27.728Z,979.6
2017-10-23T01:49:29.664Z,979.5
2017-10-23T01:50:31.602Z,979.6
2017-10-23T01:51:33.537Z,979.6
2017-10-23T01:52:35.523Z,979.6
2017-10-23T01:53:37.483Z,979.5
2017-10-23T01:54:39.362Z,979.6
2017-10-23T01:55:41.512Z,979.5
2017-10-23T01:56:43.517Z,979.5
2017-10-23T01:57:45.493Z,979.5
2017-10-23T01:58:47.415Z,979.7
2017-10-23T01:59:49.314Z,979.6
2017-10-23T02:00:51.582Z,979.5
2017-10-23T02:01:53.661Z,979.5
2017-10-23T02:02:55.601Z,979.5
2017-10-23T02:03:57.500Z,979.5
2017-10-23T02:04:59.411Z,979.6
2017-10-23T02:06:01.344Z,979.6
2017-10-23T02:07:03.375Z,979.6
2017-10-23T02:08:05.263Z,979.6
2017-10-23T02:09:07.238Z,979.6
2017-10-23T02:10:09.181Z,979.4
2017-10-23T02:11:11.121Z,979.6
2017-10-23T02:12:13.070Z,979.5
2017-10-23T02:13:14.908Z,979.6
2017-10-23T02:14:16.801Z,979.7
2017-10-23T02:15:18.705Z,979.5
2017-10-23T02:16:20.702Z,979.6
2017-10-23T02:17:22.717Z,979.6
2017-10-23T02:18:24.692Z,979.7
2017-10-23T02:19:26.680Z,979.6
2017-10-23T02:20:28.673Z,979.7
2017-10-23T02:21:30.641Z,979.6
2017-10-23T02:22:32.611Z,979.6
2017-10-23T02:23:34.667Z,979.6
2017-10-23T02:24:36.547Z,979.7
2017-10-23T02:25:38.504Z,979.6
2017-10-23T02:26:40.440Z,979.6
2017-10-23T02:27:42.571Z,979.7
2017-10-23T02:28:44.509Z,979.6
2017-10-23T02:29:46.404Z,979.7
2017-10-23T02:30:48.263Z,979.6
2017-10-23T02:31:50.178Z,979.7
2017-10-23T02:32:52.169Z,979.6
2017-10-23T02:33:54.163Z,979.6
2017-10-23T02:34:56.197Z,979.6
2017-10-23T02:35:58.108Z,979.7
2017-10-23T02:37:00.017Z,979.7
2017-10-23T02:38:02.003Z,979.6
2017-10-23T02:39:03.926Z,979.8
2017-10-23T02:40:05.815Z,979.7
2017-10-23T02:41:07.738Z,979.7
2017-10-23T02:42:09.959Z,979.6
2017-10-23T02:43:11.817Z,979.7
2017-10-23T02:44:13.753Z,979.8
2017-10-23T02:45:15.638Z,979.6
2017-10-23T02:46:17.523Z,979.6
2017-10-23T02:47:19.682Z,979.6
2017-10-23T02:48:21.606Z,979.6
2017-10-23T02:49:23.642Z,979.6
2017-10-23T02:50:25.564Z,979.6
2017-10-23T02:51:27.510Z,979.6
2017-10-23T02:52:29.819Z,979.6
2017-10-23T02:53:31.721Z,979.6
2017-10-23T02:54:33.669Z,979.7
2017-10-23T02:55:35.673Z,979.6
2017-10-23T02:56:37.753Z,979.7
2017-10-23T02:57:40.017Z,979.7
2017-10-23T02:58:41.932Z,979.7
2017-10-23T02:59:43.851Z,979.7
2017-10-23T03:00:45.718Z,979.7
2017-10-23T03:01:47.665Z,979.7
2017-10-23T03:02:49.533Z,979.8
2017-10-23T03:03:51.395Z,979.7
2017-10-23T03:04:53.285Z,979.7
2017-10-23T03:05:55.225Z,979.7
2017-10-23T03:06:57.151Z,979.7
2017-10-23T03:07:59.376Z,979.8
2017-10-23T03:09:01.297Z,979.7
2017-10-23T03:10:03.206Z,979.8
2017-10-23T03:11:05.099Z,979.7
2017-10-23T03:12:06.993Z,979.8
2017-10-23T03:13:09.343Z,979.8
2017-10-23T03:14:11.217Z,979.8
2017-10-23T03:15:13.156Z,979.8
2017-10-23T03:16:15.050Z,979.8
2017-10-23T03:17:17.046Z,979.8
2017-10-23T03:18:19.266Z,979.8
2017-10-23T03:19:21.223Z,979.7
2017-10-23T03:20:23.180Z,979.7
2017-10-23T03:21:25.152Z,979.7
2017-10-23T03:22:27.093Z,979.9
2017-10-23T03:23:29.057Z,979.9
2017-10-23T03:24:30.985Z,979.8
2017-10-23T03:25:32.939Z,979.8
2017-10-23T03:26:34.889Z,979.8
2017-10-23T03:27:36.832Z,979.7
2017-10-23T03:28:38.771Z,979.9
2017-10-23T03:29:40.736Z,979.8
2017-10-23T03:30:42.665Z,979.8
2017-10-23T03:31:44.538Z,979.8
2017-10-23T03:32:46.404Z,979.9
2017-10-23T03:33:48.307Z,979.8
2017-10-23T03:34:50.202Z,979.9
2017-10-23T03:35:52.109Z,979.9
2017-10-23T03:36:54.013Z,979.8
2017-10-23T03:37:56.098Z,979.9
2017-10-23T03:38:58.025Z,979.8
2017-10-23T03:39:59.935Z,979.8
2017-10-23T03:41:01.829Z,979.8
2017-10-23T03:42:03.731Z,979.9
2017-10-23T03:43:05.611Z,979.8
2017-10-23T03:44:07.484Z,979.9
2017-10-23T03:45:09.398Z,979.9
2017-10-23T03:46:11.379Z,980
2017-10-23T03:47:13.391Z,980
2017-10-23T03:48:15.379Z,980
2017-10-23T03:49:17.587Z,979.9
2017-10-23T03:50:19.517Z,979.9
2017-10-23T03:51:21.470Z,980
2017-10-23T03:52:23.593Z,979.9
2017-10-23T03:53:25.508Z,980
2017-10-23T03:54:27.603Z,979.9
2017-10-23T03:55:29.465Z,980
2017-10-23T03:56:31.318Z,979.9
2017-10-23T03:57:33.280Z,980
2017-10-23T03:58:35.188Z,980.1
2017-10-23T03:59:37.099Z,980
2017-10-23T04:00:39.055Z,980.1
2017-10-23T04:01:40.983Z,980.1
2017-10-23T04:02:42.964Z,980.1
2017-10-23T04:03:44.880Z,980.1
2017-10-23T04:04:47.099Z,980.1
2017-10-23T04:05:49.083Z,980.2
2017-10-23T04:06:50.996Z,980.1
2017-10-23T04:07:53.009Z,980.1
2017-10-23T04:08:54.968Z,980.2
2017-10-23T04:09:57.186Z,980.1
2017-10-23T04:10:59.090Z,980.1
2017-10-23T04:12:01.008Z,980.1
2017-10-23T04:13:02.843Z,980.2
2017-10-23T04:14:04.800Z,980.1
2017-10-23T04:15:07.203Z,980.1
2017-10-23T04:16:09.138Z,980.1
2017-10-23T04:17:11.061Z,980.2
2017-10-23T04:18:13.007Z,980.2
2017-10-23T04:19:14.967Z,980.3
2017-10-23T04:20:17.182Z,980.2
2017-10-23T04:21:19.183Z,980.2
2017-10-23T04:22:21.096Z,980.1
2017-10-23T04:23:22.980Z,980.2
2017-10-23T04:24:24.948Z,980.2
2017-10-23T04:25:27.239Z,980.2
2017-10-23T04:26:29.176Z,980.2
2017-10-23T04:27:31.029Z,980.2
2017-10-23T04:28:32.930Z,980.3
2017-10-23T04:29:34.901Z,980.3
2017-10-23T04:30:37.131Z,980.3
2017-10-23T04:31:39.106Z,980.3
2017-10-23T04:32:41.002Z,980.3
2017-10-23T04:33:42.987Z,980.4
2017-10-23T04:34:44.942Z,980.4
2017-10-23T04:35:47.197Z,980.3
2017-10-23T04:36:49.217Z,980.3
2017-10-23T04:37:51.226Z,980.3
2017-10-23T04:38:53.200Z,980.3
2017-10-23T04:39:55.126Z,980.3
2017-10-23T04:40:57.172Z,980.4
2017-10-23T04:41:59.139Z,980.3
2017-10-23T04:43:01.306Z,980.3
2017-10-23T04:44:03.291Z,980.3
2017-10-23T04:45:05.325Z,980.3
2017-10-23T04:46:07.606Z,980.4
2017-10-23T04:47:09.611Z,980.4
2017-10-23T04:48:11.884Z,980.3
2017-10-23T04:49:13.845Z,980.3
2017-10-23T04:50:15.758Z,980.4
2017-10-23T04:51:18.035Z,980.4
2017-10-23T04:52:20.288Z,980.4
2017-10-23T04:53:22.260Z,980.4
2017-10-23T04:54:24.225Z,980.4
2017-10-23T04:55:26.153Z,980.5
2017-10-23T04:56:28.198Z,980.4
2017-10-23T04:57:30.181Z,980.4
2017-10-23T04:58:32.143Z,980.4
2017-10-23T04:59:34.212Z,980.3
2017-10-23T05:00:36.172Z,980.4
2017-10-23T05:01:38.452Z,980.4
2017-10-23T05:02:40.404Z,980.5
2017-10-23T05:03:42.352Z,980.5
2017-10-23T05:04:44.354Z,980.5
2017-10-23T05:05:46.256Z,980.4
2017-10-23T05:06:48.495Z,980.5
2017-10-23T05:07:50.443Z,980.5
2017-10-23T05:08:52.382Z,980.6
2017-10-23T05:09:54.348Z,980.5
2017-10-23T05:10:56.390Z,980.5
2017-10-23T05:11:58.636Z,980.5
2017-10-23T05:13:00.642Z,980.6
2017-10-23T05:14:02.565Z,980.5
2017-10-23T05:15:04.517Z,980.6
2017-10-23T05:16:06.990Z,980.6
2017-10-23T05:17:08.901Z,980.5
2017-10-23T05:18:10.801Z,980.5
2017-10-23T05:19:12.744Z,980.5
2017-10-23T05:20:14.738Z,980.6
2017-10-23T05:21:16.713Z,980.6
2017-10-23T05:22:19.051Z,980.6
2017-10-23T05:23:21.036Z,980.6
2017-10-23T05:24:23.058Z,980.6
2017-10-23T05:25:24.941Z,980.6
2017-10-23T05:26:26.954Z,980.6
2017-10-23T05:27:28.858Z,980.6
2017-10-23T05:28:30.762Z,980.6
2017-10-23T05:29:32.765Z,980.7
2017-10-23T05:30:34.708Z,980.7
2017-10-23T05:31:36.702Z,980.7
2017-10-23T05:32:38.705Z,980.7
2017-10-23T05:33:40.683Z,980.7
2017-10-23T05:34:42.584Z,980.7
2017-10-23T05:35:44.516Z,980.8
2017-10-23T05:36:46.569Z,980.7
2017-10-23T05:37:48.508Z,980.8
2017-10-23T05:38:50.492Z,980.8
2017-10-23T05:39:52.428Z,980.8
2017-10-23T05:40:54.417Z,980.8
2017-10-23T05:41:56.340Z,980.8
2017-10-23T05:42:58.591Z,980.8
2017-10-23T05:44:00.507Z,980.9
2017-10-23T05:45:02.464Z,980.9
2017-10-23T05:46:04.604Z,980.9
2017-10-23T05:47:07.573Z,980.9
2017-10-23T05:48:09.610Z,980.9
2017-10-23T05:49:11.628Z,980.9
2017-10-23T05:50:13.569Z,980.9
2017-10-23T05:51:15.588Z,980.9
2017-10-23T05:52:17.651Z,980.9
2017-10-23T05:53:19.758Z,980.9
2017-10-23T05:54:21.790Z,980.9
2017-10-23T05:55:23.726Z,980.9
2017-10-23T05:56:25.677Z,981
2017-10-23T05:57:27.701Z,981
2017-10-23T05:58:30.061Z,981
2017-10-23T05:59:32.075Z,981
2017-10-23T06:00:34.052Z,981
2017-10-23T06:01:35.992Z,981
2017-10-23T06:02:38.043Z,981
2017-10-23T06:03:40.346Z,981
2017-10-23T06:04:42.255Z,981
2017-10-23T06:05:44.359Z,981
2017-10-23T06:06:46.274Z,981
2017-10-23T06:07:48.273Z,981.1
2017-10-23T06:08:50.520Z,981
2017-10-23T06:09:52.541Z,981
2017-10-23T06:10:54.508Z,981
2017-10-23T06:11:56.441Z,981.1
2017-10-23T06:12:58.499Z,981.1
2017-10-23T06:14:00.743Z,981.1
2017-10-23T06:15:02.737Z,981.1
2017-10-23T06:16:04.668Z,981
2017-10-23T06:17:06.963Z,981.1
2017-10-23T06:18:09.110Z,981.2
2017-10-23T06:19:11.378Z,981.1
2017-10-23T06:20:13.376Z,981.2
2017-10-23T06:21:15.402Z,981.2
2017-10-23T06:22:17.436Z,981.1
2017-10-23T06:23:19.388Z,981.2
2017-10-23T06:24:21.719Z,981.2
2017-10-23T06:25:23.707Z,981.2
2017-10-23T06:26:25.634Z,981.2
2017-10-23T06:27:27.610Z,981.3
2017-10-23T06:28:29.563Z,981.2
2017-10-23T06:29:31.801Z,981.3
2017-10-23T06:30:33.925Z,981.3
2017-10-23T06:31:35.918Z,981.3
2017-10-23T06:32:37.904Z,981.3
2017-10-23T06:33:39.757Z,981.3
2017-10-23T06:34:41.716Z,981.2
2017-10-23T06:35:43.814Z,981.2
2017-10-23T06:36:45.796Z,981.2
2017-10-23T06:37:47.792Z,981.3
2017-10-23T06:38:49.730Z,981.3
2017-10-23T06:39:51.708Z,981.2
2017-10-23T06:40:53.671Z,981.2
2017-10-23T06:41:55.615Z,981.2
2017-10-23T06:42:57.615Z,981.3
2017-10-23T06:43:59.639Z,981.3
2017-10-23T06:45:02.084Z,981.4
2017-10-23T06:46:04.089Z,981.4
2017-10-23T06:47:06.089Z,981.4
2017-10-23T06:48:08.303Z,981.4
2017-10-23T06:49:10.262Z,981.4
2017-10-23T06:50:12.517Z,981.5
2017-10-23T06:51:14.488Z,981.4
2017-10-23T06:52:16.464Z,981.4
2017-10-23T06:53:18.474Z,981.4
2017-10-23T06:54:20.385Z,981.4
2017-10-23T06:55:22.439Z,981.4
2017-10-23T06:56:24.476Z,981.5
2017-10-23T06:57:26.387Z,981.5
2017-10-23T06:58:28.357Z,981.4
2017-10-23T06:59:30.568Z,981.4
2017-10-23T07:00:32.538Z,981.5
2017-10-23T07:01:34.456Z,981.5
2017-10-23T07:02:36.428Z,981.5
2017-10-23T07:03:38.430Z,981.4
2017-10-23T07:04:40.346Z,981.5
2017-10-23T07:05:42.583Z,981.4
2017-10-23T07:06:44.625Z,981.4
2017-10-23T07:07:46.575Z,981.4
2017-10-23T07:08:48.501Z,981.4
2017-10-23T07:09:50.551Z,981.4
2017-10-23T07:10:52.511Z,981.5
2017-10-23T07:11:54.552Z,981.5
2017-10-23T07:12:56.592Z,981.4
2017-10-23T07:13:58.624Z,981.5
2017-10-23T07:15:00.725Z,981.5
2017-10-23T07:16:02.851Z,981.5
2017-10-23T07:17:04.854Z,981.5
2017-10-23T07:18:06.999Z,981.6
2017-10-23T07:19:09.076Z,981.6
2017-10-23T07:20:11.137Z,981.6
2017-10-23T07:21:13.443Z,981.6
2017-10-23T07:22:15.446Z,981.6
2017-10-23T07:23:17.463Z,981.6
2017-10-23T07:24:19.423Z,981.6
2017-10-23T07:25:21.381Z,981.7
2017-10-23T07:26:23.553Z,981.7
2017-10-23T07:27:25.496Z,981.7
2017-10-23T07:28:27.429Z,981.7
2017-10-23T07:29:29.366Z,981.7
2017-10-23T07:30:31.351Z,981.8
2017-10-23T07:31:33.579Z,981.8
2017-10-23T07:32:35.495Z,981.7
2017-10-23T07:33:37.398Z,981.7
2017-10-23T07:34:39.320Z,981.8
2017-10-23T07:35:41.217Z,981.8
2017-10-23T07:36:43.229Z,981.7
2017-10-23T07:37:45.177Z,981.7
2017-10-23T07:38:47.192Z,981.8
2017-10-23T07:39:49.283Z,981.8
2017-10-23T07:40:51.330Z,981.7
2017-10-23T07:41:53.345Z,981.8
2017-10-23T07:42:55.322Z,981.8
2017-10-23T07:43:57.316Z,981.8
2017-10-23T07:44:59.278Z,981.7
2017-10-23T07:46:01.249Z,981.8
2017-10-23T07:47:03.177Z,981.8
2017-10-23T07:48:05.148Z,981.8
2017-10-23T07:49:07.092Z,981.9
2017-10-23T07:50:09.019Z,981.8
2017-10-23T07:51:10.994Z,981.8
2017-10-23T07:52:12.960Z,981.8
2017-10-23T07:53:14.888Z,981.9
2017-10-23T07:54:16.848Z,981.9
2017-10-23T07:55:18.783Z,981.9
2017-10-23T07:56:20.690Z,981.9
2017-10-23T07:57:22.988Z,981.9
2017-10-23T07:58:25.056Z,982
2017-10-23T07:59:26.976Z,981.9
2017-10-23T08:00:29.013Z,981.9
2017-10-23T08:01:30.969Z,982
2017-10-23T08:02:33.355Z,982
2017-10-23T08:03:35.267Z,982
2017-10-23T08:04:37.244Z,981.9
2017-10-23T08:05:39.196Z,981.9
2017-10-23T08:06:41.168Z,982
2017-10-23T08:07:43.198Z,982.1
2017-10-23T08:08:45.995Z,982
2017-10-23T08:09:47.981Z,982.1
2017-10-23T08:10:49.990Z,982
2017-10-23T08:11:52.005Z,982
2017-10-23T08:12:54.072Z,982
2017-10-23T08:13:56.099Z,982.1
2017-10-23T08:14:58.029Z,982.1
2017-10-23T08:15:59.963Z,982.1
2017-10-23T08:17:01.915Z,982.1
2017-10-23T08:18:03.891Z,982.1
2017-10-23T08:19:05.948Z,982.1
2017-10-23T08:20:08.211Z,982.1
2017-10-23T08:21:10.209Z,982.1
2017-10-23T08:22:12.208Z,982.1
2017-10-23T08:23:14.170Z,982.1
2017-10-23T08:24:16.151Z,982.1
2017-10-23T08:25:18.183Z,982.1
2017-10-23T08:26:20.118Z,982.2
2017-10-23T08:27:22.665Z,982.2
2017-10-23T08:28:24.639Z,982.2
2017-10-23T08:29:26.581Z,982.2
2017-10-23T08:30:28.478Z,982.2
2017-10-23T08:31:30.421Z,982.2
2017-10-23T08:32:32.401Z,982.2
2017-10-23T08:33:34.347Z,982.2
2017-10-23T08:34:36.303Z,982.2
2017-10-23T08:35:38.421Z,982.2
2017-10-23T08:36:40.357Z,982.2
2017-10-23T08:37:42.362Z,982.3
2017-10-23T08:38:44.356Z,982.2
2017-10-23T08:39:46.353Z,982.2
2017-10-23T08:40:48.318Z,982.2
2017-10-23T08:41:50.209Z,982.2
2017-10-23T08:42:52.183Z,982.2
2017-10-23T08:43:54.210Z,982.2
2017-10-23T08:44:56.204Z,982.3
2017-10-23T08:45:58.110Z,982.3
2017-10-23T08:47:00.139Z,982.3
2017-10-23T08:48:02.128Z,982.2
2017-10-23T08:49:04.292Z,982.4
2017-10-23T08:50:06.351Z,982.4
2017-10-23T08:51:08.280Z,982.4
2017-10-23T08:52:10.239Z,982.4
2017-10-23T08:53:12.184Z,982.4
2017-10-23T08:54:14.150Z,982.3
2017-10-23T08:55:16.185Z,982.3
2017-10-23T08:56:18.130Z,982.3
2017-10-23T08:57:20.161Z,982.3
2017-10-23T08:58:22.099Z,982.3
2017-10-23T08:59:24.180Z,982.3
2017-10-23T09:00:26.147Z,982.4
2017-10-23T09:01:28.103Z,982.3
2017-10-23T09:02:30.146Z,982.3
2017-10-23T09:03:32.033Z,982.3
2017-10-23T09:04:34.022Z,982.3
2017-10-23T09:05:35.964Z,982.3
2017-10-23T09:06:37.972Z,982.3
2017-10-23T09:07:40.084Z,982.3
2017-10-23T09:08:42.139Z,982.3
2017-10-23T09:09:44.203Z,982.3
2017-10-23T09:10:46.157Z,982.3
2017-10-23T09:11:48.209Z,982.4
2017-10-23T09:12:50.173Z,982.4
2017-10-23T09:13:52.191Z,982.3
2017-10-23T09:14:54.193Z,982.3
2017-10-23T09:15:56.197Z,982.3
2017-10-23T09:16:58.117Z,982.4
2017-10-23T09:18:00.062Z,982.4
2017-10-23T09:19:02.062Z,982.3
2017-10-23T09:20:04.043Z,982.3
2017-10-23T09:21:05.951Z,982.4
2017-10-23T09:22:07.976Z,982.4
2017-10-23T09:23:09.918Z,982.4
2017-10-23T09:24:11.999Z,982.4
2017-10-23T09:25:13.935Z,982.5
2017-10-23T09:26:15.916Z,982.5
2017-10-23T09:27:18.370Z,982.4
2017-10-23T09:28:20.255Z,982.3
2017-10-23T09:29:22.187Z,982.4
2017-10-23T09:30:24.204Z,982.4
2017-10-23T09:31:26.138Z,982.4
2017-10-23T09:32:28.125Z,982.5
2017-10-23T09:33:30.058Z,982.4
2017-10-23T09:34:32.001Z,982.4
2017-10-23T09:35:34.348Z,982.4
2017-10-23T09:36:36.312Z,982.5
2017-10-23T09:37:38.373Z,982.5
2017-10-23T09:38:40.308Z,982.5
2017-10-23T09:39:42.321Z,982.6
2017-10-23T09:40:44.603Z,982.6
2017-10-23T09:41:46.675Z,982.6
2017-10-23T09:42:48.633Z,982.5
2017-10-23T09:43:50.666Z,982.5
2017-10-23T09:44:52.693Z,982.5
2017-10-23T09:45:54.666Z,982.5
2017-10-23T09:46:56.815Z,982.4
2017-10-23T09:47:58.787Z,982.5
2017-10-23T09:49:00.657Z,982.6
2017-10-23T09:50:02.665Z,982.6
2017-10-23T09:51:04.967Z,982.6
2017-10-23T09:52:06.939Z,982.6
2017-10-23T09:53:08.868Z,982.6
2017-10-23T09:54:10.795Z,982.5
2017-10-23T09:55:12.683Z,982.5
2017-10-23T09:56:14.630Z,982.6
2017-10-23T09:57:16.658Z,982.5
2017-10-23T09:58:18.611Z,982.5
2017-10-23T09:59:20.538Z,982.4
2017-10-23T10:00:22.458Z,982.6
2017-10-23T10:01:24.489Z,982.5
2017-10-23T10:02:26.381Z,982.5
2017-10-23T10:03:28.336Z,982.6
2017-10-23T10:04:30.245Z,982.5
2017-10-23T10:05:32.230Z,982.6
2017-10-23T10:06:34.498Z,982.7
2017-10-23T10:07:36.440Z,982.8
2017-10-23T10:08:38.334Z,982.9
2017-10-23T10:09:40.303Z,982.9
2017-10-23T10:10:42.261Z,982.9
2017-10-23T10:11:44.505Z,982.8
2017-10-23T10:12:46.435Z,982.8
2017-10-23T10:13:48.401Z,982.9
2017-10-23T10:14:50.651Z,982.9
2017-10-23T10:15:52.630Z,982.6
2017-10-23T10:16:54.876Z,982.6
2017-10-23T10:17:56.822Z,982.6
2017-10-23T10:18:58.833Z,982.5
2017-10-23T10:20:00.784Z,982.6
2017-10-23T10:21:02.709Z,982.7
2017-10-23T10:22:04.967Z,982.8
2017-10-23T10:23:06.999Z,982.9
2017-10-23T10:24:08.925Z,982.7
2017-10-23T10:25:10.860Z,982.8
2017-10-23T10:26:12.893Z,982.7
2017-10-23T10:27:15.138Z,982.7
2017-10-23T10:28:17.068Z,982.7
2017-10-23T10:29:19.107Z,982.6
2017-10-23T10:30:21.058Z,982.7
2017-10-23T10:31:23.087Z,982.7
2017-10-23T10:32:25.157Z,982.6
2017-10-23T10:33:27.140Z,982.6
2017-10-23T10:34:29.082Z,982.7
2017-10-23T10:35:31.017Z,982.6
2017-10-23T10:36:33.005Z,982.6
2017-10-23T10:37:34.977Z,982.7
2017-10-23T10:38:36.954Z,982.6
2017-10-23T10:39:38.867Z,982.5
2017-10-23T10:40:40.864Z,982.6
2017-10-23T10:41:42.870Z,982.5
2017-10-23T10:42:45.133Z,982.6
2017-10-23T10:43:46.995Z,982.6
2017-10-23T10:44:48.900Z,982.6
2017-10-23T10:45:50.940Z,982.6
2017-10-23T10:46:52.958Z,982.6
2017-10-23T10:47:55.309Z,982.6
2017-10-23T10:48:57.380Z,982.5
2017-10-23T10:49:59.390Z,982.6
2017-10-23T10:51:01.374Z,982.6
2017-10-23T10:52:03.304Z,982.5
2017-10-23T10:53:05.620Z,982.5
2017-10-23T10:54:07.554Z,982.5
2017-10-23T10:55:09.553Z,982.4
2017-10-23T10:56:11.512Z,982.5
2017-10-23T10:57:13.437Z,982.5
2017-10-23T10:58:15.904Z,982.4
2017-10-23T10:59:17.832Z,982.4
2017-10-23T11:00:19.815Z,982.5
2017-10-23T11:01:21.856Z,982.5
2017-10-23T11:02:23.917Z,982.5
2017-10-23T11:03:25.883Z,982.5
2017-10-23T11:04:27.898Z,982.5
2017-10-23T11:05:29.883Z,982.4
2017-10-23T11:06:31.878Z,982.5
2017-10-23T11:07:33.849Z,982.4
2017-10-23T11:08:36.189Z,982.5
2017-10-23T11:09:38.151Z,982.4
2017-10-23T11:10:40.091Z,982.4
2017-10-23T11:11:41.991Z,982.5
2017-10-23T11:12:43.870Z,982.3
2017-10-23T11:13:45.930Z,982.5
2017-10-23T11:14:47.933Z,982.5
2017-10-23T11:15:49.848Z,982.4
2017-10-23T11:16:51.883Z,982.5
2017-10-23T11:17:54.739Z,982.5
2017-10-23T11:18:56.674Z,982.4
2017-10-23T11:19:58.623Z,982.4
2017-10-23T11:21:00.624Z,982.4
2017-10-23T11:22:03.757Z,982.4
2017-10-23T11:23:05.776Z,982.4
2017-10-23T11:24:07.797Z,982.5
2017-10-23T11:25:09.701Z,982.4
2017-10-23T11:26:11.645Z,982.4
2017-10-23T11:27:13.620Z,982.4
2017-10-23T11:28:15.557Z,982.5
2017-10-23T11:29:17.809Z,982.5
2017-10-23T11:30:19.823Z,982.5
2017-10-23T11:31:21.815Z,982.5
2017-10-23T11:32:23.750Z,982.5
2017-10-23T11:33:25.801Z,982.4
2017-10-23T11:34:27.788Z,982.4
2017-10-23T11:35:29.829Z,982.4
2017-10-23T11:36:31.851Z,982.4
2017-10-23T11:37:33.885Z,982.4
2017-10-23T11:38:35.813Z,982.4
2017-10-23T11:39:37.786Z,982.4
2017-10-23T11:40:39.752Z,982.4
2017-10-23T11:41:41.745Z,982.4
2017-10-23T11:42:43.822Z,982.3
2017-10-23T11:43:45.824Z,982.5
2017-10-23T11:44:47.844Z,982.4
2017-10-23T11:45:49.730Z,982.5
2017-10-23T11:46:51.738Z,982.6
2017-10-23T11:47:53.809Z,982.5
2017-10-23T11:48:55.800Z,982.5
2017-10-23T11:49:57.873Z,982.5
2017-10-23T11:50:59.945Z,982.4
2017-10-23T11:52:01.890Z,982.5
2017-10-23T11:53:03.922Z,982.5
2017-10-23T11:54:05.932Z,982.5
2017-10-23T11:55:07.925Z,982.5
2017-10-23T11:56:09.887Z,982.5
2017-10-23T11:57:11.889Z,982.5
2017-10-23T11:58:13.946Z,982.5
2017-10-23T11:59:16.022Z,982.5
2017-10-23T12:00:18.138Z,982.6
2017-10-23T12:01:20.147Z,982.5
2017-10-23T12:02:22.165Z,982.6
2017-10-23T12:03:24.208Z,982.6
2017-10-23T12:04:26.142Z,982.6
2017-10-23T12:05:28.113Z,982.6
2017-10-23T12:06:30.132Z,982.5
2017-10-23T12:07:32.142Z,982.5
2017-10-23T12:08:34.355Z,982.5
2017-10-23T12:09:36.367Z,982.5
2017-10-23T12:10:38.827Z,982.5
2017-10-23T12:11:40.820Z,982.6
2017-10-23T12:12:42.815Z,982.6
2017-10-23T12:13:44.826Z,982.6
2017-10-23T12:14:46.766Z,982.6
2017-10-23T12:15:48.810Z,982.6
2017-10-23T12:16:50.776Z,982.5
2017-10-23T12:17:52.728Z,982.6
2017-10-23T12:18:54.679Z,982.5
2017-10-23T12:19:56.767Z,982.6
2017-10-23T12:20:58.805Z,982.5
2017-10-23T12:22:00.775Z,982.6
2017-10-23T12:23:02.749Z,982.6
2017-10-23T12:24:04.743Z,982.6
2017-10-23T12:25:06.790Z,982.7
2017-10-23T12:26:09.069Z,982.7
2017-10-23T12:27:11.172Z,982.6
2017-10-23T12:28:13.094Z,982.7
2017-10-23T12:29:15.050Z,982.7
2017-10-23T12:30:17.017Z,982.7
2017-10-23T12:31:19.048Z,982.7
2017-10-23T12:32:21.134Z,982.7
2017-10-23T12:33:23.161Z,982.6
2017-10-23T12:34:25.142Z,982.6
2017-10-23T12:35:27.107Z,982.5
2017-10-23T12:36:29.151Z,982.5
2017-10-23T12:37:31.124Z,982.5
2017-10-23T12:38:33.163Z,982.5
2017-10-23T12:39:35.238Z,982.5
2017-10-23T12:40:37.199Z,982.5
2017-10-23T12:41:39.440Z,982.5
2017-10-23T12:42:41.388Z,982.5
2017-10-23T12:43:43.436Z,982.5
2017-10-23T12:44:45.535Z,982.4
2017-10-23T12:45:47.620Z,982.5
2017-10-23T12:46:49.706Z,982.5
2017-10-23T12:47:52.267Z,982.4
2017-10-23T12:48:54.219Z,982.5
2017-10-23T12:49:56.273Z,982.5
2017-10-23T12:50:58.262Z,982.5
2017-10-23T12:52:00.287Z,982.5
2017-10-23T12:53:02.358Z,982.5
2017-10-23T12:54:04.437Z,982.5
2017-10-23T12:55:06.440Z,982.5
2017-10-23T12:56:08.520Z,982.5
2017-10-23T12:57:10.895Z,982.5
2017-10-23T12:58:12.852Z,982.5
2017-10-23T12:59:14.844Z,982.5
2017-10-23T13:00:17.450Z,982.6
2017-10-23T13:01:19.416Z,982.6
2017-10-23T13:02:22.079Z,982.5
2017-10-23T13:03:24.224Z,982.4
2017-10-23T13:04:26.123Z,982.5
2017-10-23T13:05:28.258Z,982.6
2017-10-23T13:06:30.259Z,982.5
2017-10-23T13:07:32.319Z,982.5
2017-10-23T13:08:34.317Z,982.5
2017-10-23T13:09:36.756Z,982.5
2017-10-23T13:10:38.753Z,982.5
2017-10-23T13:11:40.803Z,982.6
2017-10-23T13:12:42.804Z,982.6
2017-10-23T13:13:44.752Z,982.5
2017-10-23T13:14:46.833Z,982.5
2017-10-23T13:15:48.955Z,982.5
2017-10-23T13:16:50.946Z,982.5
2017-10-23T13:17:53.270Z,982.5
2017-10-23T13:18:55.289Z,982.5
2017-10-23T13:19:57.308Z,982.5